Castlemartyr, Ireland
Current Conditions -  °F | °C
As of 12:30 PM on Wednesday 22 Oct 2014 (Local Time) from EICK Reporting Station
Broken Clouds Broken Clouds  
Wind Chill: 55°   Ceiling: 2400
Heat Index: 55°   Visibility: 6mi
Dew Point: 48°   Wind: 15mph
Humidity: 77%   Direction: 240°WSW
Pressure: 30.27"   Gusts: NA
Location:  51.91°N, 8.05°W
Report Text: EICK 221230Z 24013KT 9999 FEW018 BKN024 13/09 Q1025 NOSIG
Loading
Personal Weather Stations






























Interactive Weather Map
Tropical Storm Tracking
New forecast layout! Learn more

10-Day Weather Forecast

Advertisements
Track Severe Weather on mobile